createdAt,value
2023-02-24T00:02:05.601Z,41.75
2023-02-24T00:04:39.412Z,37.13
2023-02-24T00:07:11.320Z,39.70
2023-02-24T00:09:39.033Z,38.67
2023-02-24T00:12:11.148Z,42.90
2023-02-24T00:14:40.071Z,38.08
2023-02-24T00:17:10.862Z,39.83
2023-02-24T00:19:37.877Z,35.15
2023-02-24T00:22:07.836Z,37.88
2023-02-24T00:24:35.486Z,42.03
2023-02-24T00:27:07.501Z,42.85
2023-02-24T00:29:34.509Z,47.90
2023-02-24T00:32:02.464Z,65.00
2023-02-24T00:34:31.361Z,65.63
2023-02-24T00:36:58.612Z,64.78
2023-02-24T00:39:33.312Z,64.63
2023-02-24T00:42:06.655Z,47.10
2023-02-24T00:44:41.771Z,49.40
2023-02-24T00:47:10.482Z,50.75
2023-02-24T00:49:42.615Z,48.47
2023-02-24T00:52:13.735Z,43.50
2023-02-24T00:54:41.465Z,38.42
2023-02-24T00:57:08.467Z,36.25
2023-02-24T00:59:36.908Z,38.92
2023-02-24T01:02:04.256Z,32.63
2023-02-24T01:04:31.053Z,31.02
2023-02-24T01:07:00.647Z,35.10
2023-02-24T01:09:29.639Z,32.05
2023-02-24T01:12:22.390Z,31.05
2023-02-24T01:14:51.686Z,32.40
2023-02-24T01:17:20.614Z,32.25
2023-02-24T01:19:49.271Z,26.35
2023-02-24T01:22:18.479Z,28.83
2023-02-24T01:24:45.638Z,28.33
2023-02-24T01:27:13.897Z,26.35
2023-02-24T01:29:40.731Z,28.52
2023-02-24T01:32:17.066Z,26.88
2023-02-24T01:34:45.157Z,27.13
2023-02-24T01:37:16.254Z,34.85
2023-02-24T01:39:47.004Z,35.13
2023-02-24T01:42:16.929Z,33.47
2023-02-24T01:44:43.671Z,31.23
2023-02-24T01:47:11.279Z,30.25
2023-02-24T01:49:42.289Z,33.20
2023-02-24T01:52:20.541Z,39.83
2023-02-24T01:54:54.966Z,30.20
2023-02-24T01:57:24.444Z,37.70
2023-02-24T01:59:54.542Z,34.03
2023-02-24T02:02:23.342Z,33.60
2023-02-24T02:04:56.959Z,33.20
2023-02-24T02:07:26.580Z,33.92
2023-02-24T02:12:22.536Z,38.45
2023-02-24T02:14:53.464Z,41.28
2023-02-24T02:17:48.934Z,44.95
2023-02-24T02:20:55.670Z,43.20
2023-02-24T02:23:50.116Z,45.67
2023-02-24T02:26:25.772Z,43.83
2023-02-24T02:29:11.255Z,47.45
2023-02-24T02:31:50.783Z,45.03
2023-02-24T02:34:40.947Z,43.97
2023-02-24T02:37:19.786Z,56.20
2023-02-24T02:40:09.050Z,58.80
2023-02-24T02:42:44.445Z,53.65
2023-02-24T02:45:23.695Z,61.92
2023-02-24T02:47:59.285Z,48.95
2023-02-24T02:51:17.112Z,51.95
2023-02-24T02:53:55.800Z,53.58
2023-02-24T02:56:30.554Z,51.42
2023-02-24T02:59:00.668Z,52.70
2023-02-24T03:01:31.953Z,56.00
2023-02-24T03:04:07.289Z,56.20
2023-02-24T03:06:37.672Z,53.83
2023-02-24T03:09:15.898Z,57.10
2023-02-24T03:11:49.174Z,58.13
2023-02-24T03:14:18.918Z,49.97
2023-02-24T03:16:49.196Z,55.55
2023-02-24T03:19:20.496Z,55.38
2023-02-24T03:21:55.986Z,53.83
2023-02-24T03:24:24.348Z,59.30
2023-02-24T03:26:56.378Z,56.60
2023-02-24T03:29:39.608Z,61.90
2023-02-24T03:32:13.150Z,61.58
2023-02-24T03:34:48.528Z,51.58
2023-02-24T03:37:15.389Z,56.22
2023-02-24T03:39:42.121Z,58.08
2023-02-24T03:42:14.159Z,53.42
2023-02-24T03:44:40.809Z,65.35
2023-02-24T03:47:09.564Z,67.18
2023-02-24T03:49:38.323Z,74.57
2023-02-24T03:52:40.848Z,62.90
2023-02-24T03:55:21.319Z,66.22
2023-02-24T03:58:05.427Z,61.45
2023-02-24T04:00:46.345Z,71.35
2023-02-24T04:03:18.706Z,67.47
2023-02-24T04:05:55.866Z,68.72
2023-02-24T04:08:24.698Z,74.93
2023-02-24T04:10:53.835Z,70.55
2023-02-24T04:13:47.068Z,74.45
2023-02-24T04:16:28.858Z,65.95
2023-02-24T04:19:05.501Z,68.85
2023-02-24T04:21:34.588Z,62.60
2023-02-24T04:24:11.425Z,59.60
2023-02-24T04:26:42.790Z,61.90
2023-02-24T04:29:13.811Z,55.50
2023-02-24T04:31:40.800Z,57.88
2023-02-24T04:34:09.378Z,52.85
2023-02-24T04:36:36.028Z,49.67
2023-02-24T04:39:04.962Z,48.58
2023-02-24T04:41:31.616Z,52.97
2023-02-24T04:43:58.267Z,51.15
2023-02-24T04:46:24.868Z,46.20
2023-02-24T04:48:51.470Z,43.38
2023-02-24T04:51:20.785Z,51.35
2023-02-24T04:53:49.421Z,43.80
2023-02-24T04:56:16.055Z,46.55
2023-02-24T04:58:45.124Z,42.70
2023-02-24T05:01:11.746Z,50.40
2023-02-24T05:03:42.292Z,55.70
2023-02-24T05:06:15.958Z,41.97
2023-02-24T05:08:43.775Z,39.72
2023-02-24T05:11:18.172Z,45.40
2023-02-24T05:13:45.763Z,52.13
2023-02-24T05:16:15.389Z,37.28
2023-02-24T05:18:42.647Z,35.08
2023-02-24T05:21:33.676Z,33.25
2023-02-24T05:24:06.520Z,42.75
2023-02-24T05:26:42.919Z,38.20
2023-02-24T05:29:11.196Z,31.40
2023-02-24T05:31:38.306Z,31.35
2023-02-24T05:34:07.584Z,29.13
2023-02-24T05:36:40.309Z,36.90
2023-02-24T05:39:12.072Z,32.65
2023-02-24T05:41:41.802Z,30.85
2023-02-24T05:44:13.268Z,35.80
2023-02-24T05:46:44.499Z,31.02
2023-02-24T05:49:15.377Z,38.22
2023-02-24T05:51:54.454Z,33.22
2023-02-24T05:54:22.812Z,37.22
2023-02-24T05:56:49.529Z,29.25
2023-02-24T05:59:21.346Z,31.95
2023-02-24T06:01:49.150Z,37.17
2023-02-24T06:04:39.162Z,29.23
2023-02-24T06:07:18.780Z,31.00
2023-02-24T06:09:53.358Z,32.95
2023-02-24T06:12:25.842Z,38.05
2023-02-24T06:14:53.154Z,38.88
2023-02-24T06:17:20.857Z,29.67
2023-02-24T06:19:50.846Z,38.65
2023-02-24T06:22:19.905Z,34.10
2023-02-24T06:24:49.174Z,29.52
2023-02-24T06:29:49.859Z,35.00
2023-02-24T06:32:21.398Z,33.47
2023-02-24T06:34:48.098Z,34.13
2023-02-24T06:37:15.731Z,33.33
2023-02-24T06:39:43.190Z,35.83
2023-02-24T06:42:11.842Z,23.55
2023-02-24T06:44:40.262Z,32.08
2023-02-24T06:47:10.377Z,28.80
2023-02-24T06:49:37.488Z,28.17
2023-02-24T06:52:04.688Z,24.35
2023-02-24T06:54:35.657Z,31.58
2023-02-24T06:57:06.314Z,31.10
2023-02-24T06:59:34.190Z,30.92
2023-02-24T07:02:03.298Z,31.73
2023-02-24T07:04:30.209Z,30.95
2023-02-24T07:07:02.887Z,25.00
2023-02-24T07:09:31.116Z,31.85
2023-02-24T07:11:58.752Z,25.63
2023-02-24T07:14:28.008Z,27.83
2023-02-24T07:16:55.297Z,31.17
2023-02-24T07:19:25.897Z,26.15
2023-02-24T07:22:03.396Z,21.63
2023-02-24T07:24:40.461Z,26.77
2023-02-24T07:27:12.448Z,28.00
2023-02-24T07:29:39.306Z,25.75
2023-02-24T07:32:08.619Z,24.90
2023-02-24T07:34:39.596Z,28.52
2023-02-24T07:37:07.896Z,30.67
2023-02-24T07:39:36.879Z,24.23
2023-02-24T07:42:09.806Z,20.40
2023-02-24T07:44:36.346Z,34.08
2023-02-24T07:47:07.541Z,23.75
2023-02-24T07:49:34.495Z,20.50
2023-02-24T07:52:01.960Z,30.17
2023-02-24T07:54:29.995Z,28.73
2023-02-24T07:56:59.026Z,20.27
2023-02-24T07:59:32.233Z,21.73
2023-02-24T08:01:59.311Z,26.50
2023-02-24T08:04:30.516Z,23.63
2023-02-24T08:06:58.921Z,25.73
2023-02-24T08:09:45.690Z,26.13
2023-02-24T08:12:23.779Z,29.15
2023-02-24T08:14:52.918Z,28.70
2023-02-24T08:17:26.200Z,21.15
2023-02-24T08:20:14.741Z,26.58
2023-02-24T08:22:51.880Z,24.70
2023-02-24T08:25:35.431Z,27.00
2023-02-24T08:28:08.313Z,22.02
2023-02-24T08:30:40.164Z,32.22
2023-02-24T08:33:09.941Z,28.52
2023-02-24T08:35:39.036Z,26.90
2023-02-24T08:38:09.742Z,26.27
2023-02-24T08:40:53.154Z,26.15
2023-02-24T08:43:28.802Z,20.85
2023-02-24T08:46:03.662Z,23.20
2023-02-24T08:48:38.848Z,27.90
2023-02-24T08:51:11.217Z,29.05
2023-02-24T08:53:40.620Z,29.27
2023-02-24T08:56:11.385Z,26.98
2023-02-24T08:58:49.038Z,27.33
2023-02-24T09:01:24.011Z,28.83
2023-02-24T09:03:57.905Z,25.80
2023-02-24T09:06:43.718Z,31.27
2023-02-24T09:09:17.663Z,31.33
2023-02-24T09:12:05.748Z,32.75
2023-02-24T09:14:37.732Z,28.15
2023-02-24T09:17:10.927Z,28.65
2023-02-24T09:19:51.900Z,31.52
2023-02-24T09:22:33.401Z,30.38
2023-02-24T09:25:24.034Z,29.50
2023-02-24T09:28:07.881Z,25.98
2023-02-24T09:30:55.157Z,33.45
2023-02-24T09:33:38.670Z,26.98
2023-02-24T09:36:12.738Z,31.42
2023-02-24T09:39:01.735Z,24.80
2023-02-24T09:41:34.080Z,24.17
2023-02-24T09:44:18.123Z,26.38
2023-02-24T09:47:13.400Z,23.33
2023-02-24T09:50:03.935Z,28.13
2023-02-24T09:52:40.844Z,24.33
2023-02-24T09:56:03.000Z,22.13
2023-02-24T09:59:00.738Z,23.45
2023-02-24T10:01:36.388Z,22.48
2023-02-24T10:04:21.112Z,21.80
2023-02-24T10:06:58.775Z,20.98
2023-02-24T10:09:33.525Z,22.88
2023-02-24T10:12:05.346Z,18.58
2023-02-24T10:15:17.136Z,20.73
2023-02-24T10:17:49.946Z,17.63
2023-02-24T10:20:41.006Z,21.83
2023-02-24T10:23:56.460Z,16.85
2023-02-24T10:26:51.235Z,23.85
2023-02-24T10:29:45.496Z,24.10
2023-02-24T10:32:31.595Z,18.67
2023-02-24T10:34:58.146Z,20.85
2023-02-24T10:37:29.445Z,20.98
2023-02-24T10:39:59.455Z,22.35
2023-02-24T10:42:34.331Z,21.08
2023-02-24T10:45:25.110Z,15.82
2023-02-24T10:47:59.317Z,28.45
2023-02-24T10:50:32.093Z,23.08
2023-02-24T10:53:09.922Z,21.45
2023-02-24T10:55:53.468Z,18.63
2023-02-24T10:58:44.551Z,19.92
2023-02-24T11:01:27.774Z,16.42
2023-02-24T11:04:22.474Z,18.25
2023-02-24T11:06:52.728Z,18.60
2023-02-24T11:09:27.443Z,22.90
2023-02-24T11:12:24.656Z,23.23
2023-02-24T11:15:29.008Z,18.98
2023-02-24T11:17:59.536Z,22.83
2023-02-24T11:20:49.349Z,24.10
2023-02-24T11:23:22.193Z,16.67
2023-02-24T11:25:53.457Z,20.83
2023-02-24T11:28:32.251Z,17.95
2023-02-24T11:31:35.964Z,25.48
2023-02-24T11:34:31.535Z,26.77
2023-02-24T11:37:25.433Z,24.63
2023-02-24T11:40:01.325Z,20.88
2023-02-24T11:42:46.380Z,23.60
2023-02-24T11:45:46.927Z,22.25
2023-02-24T11:48:20.083Z,20.98
2023-02-24T11:50:56.198Z,25.30
2023-02-24T11:53:36.796Z,20.40
2023-02-24T11:56:11.882Z,19.08
2023-02-24T11:59:12.340Z,18.38
2023-02-24T12:01:50.664Z,17.48
2023-02-24T12:04:29.169Z,19.90
2023-02-24T12:07:23.571Z,22.67
2023-02-24T12:10:14.115Z,20.58
2023-02-24T12:12:51.268Z,20.70
2023-02-24T12:15:32.262Z,19.33
2023-02-24T12:18:17.654Z,18.80
2023-02-24T12:20:50.579Z,18.88
2023-02-24T12:23:23.232Z,20.52
2023-02-24T12:26:18.393Z,22.08
2023-02-24T12:29:03.375Z,22.35
2023-02-24T12:31:39.007Z,22.13
2023-02-24T12:34:08.571Z,23.98
2023-02-24T12:37:07.525Z,20.58
2023-02-24T12:39:43.143Z,23.17
2023-02-24T12:42:18.977Z,25.15
2023-02-24T12:44:52.519Z,20.10
2023-02-24T12:47:49.951Z,24.70
2023-02-24T12:50:39.693Z,19.05
2023-02-24T12:53:19.180Z,25.15
2023-02-24T12:58:47.781Z,24.00
2023-02-24T13:01:36.881Z,21.35
2023-02-24T13:04:12.393Z,23.65
2023-02-24T13:07:03.935Z,23.55
2023-02-24T13:09:48.763Z,24.48
2023-02-24T13:12:15.191Z,21.90
2023-02-24T13:14:42.992Z,20.42
2023-02-24T13:17:20.310Z,22.27
2023-02-24T13:19:48.747Z,22.88
2023-02-24T13:22:16.843Z,23.77
2023-02-24T13:24:55.274Z,16.52
2023-02-24T13:27:24.765Z,25.53
2023-02-24T13:29:55.615Z,28.60
2023-02-24T13:32:34.246Z,25.88
2023-02-24T13:35:04.640Z,24.08
2023-02-24T13:37:37.630Z,29.45
2023-02-24T13:40:19.396Z,23.70
2023-02-24T13:42:58.331Z,27.88
2023-02-24T13:45:30.848Z,27.00
2023-02-24T13:48:02.269Z,23.95
2023-02-24T13:50:51.822Z,27.85
2023-02-24T13:53:52.106Z,28.73
2023-02-24T13:56:40.092Z,26.70
2023-02-24T13:59:33.452Z,22.70
2023-02-24T14:02:28.418Z,25.73
2023-02-24T14:04:57.969Z,22.77
2023-02-24T14:10:25.219Z,21.35
2023-02-24T14:13:02.918Z,33.45
2023-02-24T14:15:30.402Z,23.50
2023-02-24T14:18:05.462Z,25.00
2023-02-24T14:20:37.842Z,21.38
2023-02-24T14:23:23.867Z,24.05
2023-02-24T14:26:18.469Z,27.85
2023-02-24T14:28:55.064Z,26.63
2023-02-24T14:31:23.278Z,22.83
2023-02-24T14:33:58.729Z,27.23
2023-02-24T14:36:30.497Z,18.80
2023-02-24T14:39:17.687Z,19.95
2023-02-24T14:41:45.554Z,19.67
2023-02-24T14:44:24.290Z,21.55
2023-02-24T14:46:58.179Z,24.40
2023-02-24T14:49:30.978Z,22.25
2023-02-24T14:52:06.887Z,24.73
2023-02-24T14:55:05.130Z,19.40
2023-02-24T14:57:40.466Z,15.57
2023-02-24T15:00:17.576Z,20.52
2023-02-24T15:02:51.566Z,18.27
2023-02-24T15:05:18.424Z,19.80
2023-02-24T15:07:45.512Z,23.00
2023-02-24T15:10:21.329Z,21.85
2023-02-24T15:12:57.792Z,21.42
2023-02-24T15:15:29.519Z,25.13
2023-02-24T15:18:02.946Z,24.58
2023-02-24T15:20:38.062Z,20.23
2023-02-24T15:23:04.674Z,24.80
2023-02-24T15:25:43.506Z,19.20
2023-02-24T15:28:26.416Z,22.45
2023-02-24T15:31:00.956Z,21.83
2023-02-24T15:33:34.237Z,23.80
2023-02-24T15:36:01.310Z,17.42
2023-02-24T15:38:35.250Z,23.67
2023-02-24T15:41:04.355Z,23.25
2023-02-24T15:43:37.468Z,24.15
2023-02-24T15:46:23.301Z,21.52
2023-02-24T15:48:52.539Z,20.58
2023-02-24T15:51:38.009Z,18.60
2023-02-24T15:54:11.173Z,23.02
2023-02-24T15:56:37.719Z,22.02
2023-02-24T15:59:05.924Z,20.73
2023-02-24T16:01:33.211Z,26.00
2023-02-24T16:04:00.680Z,19.70
2023-02-24T16:06:28.513Z,20.73
2023-02-24T16:08:57.154Z,17.50
2023-02-24T16:11:31.634Z,23.63
2023-02-24T16:14:00.544Z,21.88
2023-02-24T16:16:27.414Z,21.73
2023-02-24T16:18:54.179Z,19.20
2023-02-24T16:21:20.810Z,22.17
2023-02-24T16:23:47.468Z,22.05
2023-02-24T16:26:20.087Z,15.65
2023-02-24T16:28:57.578Z,22.95
2023-02-24T16:31:26.132Z,18.10
2023-02-24T16:33:55.805Z,21.77
2023-02-24T16:36:25.194Z,17.55
2023-02-24T16:41:18.455Z,21.42
2023-02-24T16:43:44.998Z,17.52
2023-02-24T16:46:18.176Z,16.75
2023-02-24T16:48:47.329Z,19.10
2023-02-24T16:51:13.978Z,19.75
2023-02-24T16:53:40.609Z,21.50
2023-02-24T16:56:07.585Z,21.00
2023-02-24T16:58:34.529Z,25.88
2023-02-24T17:01:02.735Z,17.58
2023-02-24T17:03:41.435Z,19.60
2023-02-24T17:06:08.361Z,18.85
2023-02-24T17:08:34.994Z,18.25
2023-02-24T17:11:02.098Z,18.77
2023-02-24T17:13:28.671Z,17.95
2023-02-24T17:15:56.970Z,22.80
2023-02-24T17:18:24.834Z,19.92
2023-02-24T17:20:51.687Z,24.88
2023-02-24T17:23:18.393Z,22.20
2023-02-24T17:25:46.135Z,23.60
2023-02-24T17:28:12.700Z,28.70
2023-02-24T17:30:40.120Z,20.30
2023-02-24T17:33:07.184Z,21.20
2023-02-24T17:35:33.669Z,22.02
2023-02-24T17:38:00.241Z,28.02
2023-02-24T17:40:26.881Z,24.60
2023-02-24T17:42:53.353Z,29.40
2023-02-24T17:45:20.148Z,29.55
2023-02-24T17:47:46.720Z,26.02
2023-02-24T17:50:13.346Z,22.58
2023-02-24T17:52:40.572Z,28.60
2023-02-24T17:55:07.950Z,30.80
2023-02-24T17:57:35.594Z,24.83
2023-02-24T18:00:02.594Z,30.23
2023-02-24T18:02:29.340Z,27.85
2023-02-24T18:04:56.770Z,30.58
2023-02-24T18:07:25.096Z,24.88
2023-02-24T18:09:51.873Z,28.58
2023-02-24T18:12:20.689Z,27.52
2023-02-24T18:14:56.258Z,27.23
2023-02-24T18:17:29.408Z,21.58
2023-02-24T18:19:56.033Z,20.70
2023-02-24T18:22:23.121Z,20.13
2023-02-24T18:24:49.936Z,22.60
2023-02-24T18:27:17.952Z,23.48
2023-02-24T18:29:44.595Z,19.05
2023-02-24T18:32:11.391Z,21.17
2023-02-24T18:34:38.347Z,18.15
2023-02-24T18:37:04.854Z,19.10
2023-02-24T18:39:31.418Z,24.42
2023-02-24T18:41:59.580Z,23.60
2023-02-24T18:44:26.376Z,28.88
2023-02-24T18:46:52.961Z,28.10
2023-02-24T18:49:19.664Z,27.55
2023-02-24T18:51:48.593Z,30.85
2023-02-24T18:54:15.685Z,31.55
2023-02-24T18:56:42.654Z,33.22
2023-02-24T18:59:09.270Z,31.58
2023-02-24T19:01:38.684Z,35.15
2023-02-24T19:06:34.371Z,34.35
2023-02-24T19:09:11.498Z,30.13
2023-02-24T19:11:40.475Z,28.80
2023-02-24T19:14:07.535Z,35.70
2023-02-24T19:16:34.850Z,28.45
2023-02-24T19:19:03.721Z,35.83
2023-02-24T19:21:32.428Z,32.70
2023-02-24T19:24:03.903Z,31.42
2023-02-24T19:26:30.733Z,36.42
2023-02-24T19:28:58.063Z,38.10
2023-02-24T19:31:27.491Z,31.25
2023-02-24T19:33:56.319Z,32.78
2023-02-24T19:36:24.169Z,26.98
2023-02-24T19:38:51.019Z,24.23
2023-02-24T19:41:18.083Z,16.77
2023-02-24T19:43:44.588Z,13.93
2023-02-24T19:46:13.352Z,16.92
2023-02-24T19:48:40.708Z,17.38
2023-02-24T19:51:21.887Z,18.55
2023-02-24T19:53:55.358Z,16.42
2023-02-24T19:56:26.542Z,14.27
2023-02-24T19:58:58.577Z,17.50
2023-02-24T20:01:29.563Z,15.00
2023-02-24T20:03:58.231Z,12.55
2023-02-24T20:06:37.737Z,16.20
2023-02-24T20:09:12.189Z,19.08
2023-02-24T20:11:39.351Z,10.32
2023-02-24T20:14:07.708Z,17.90
2023-02-24T20:16:37.193Z,14.65
2023-02-24T20:19:05.876Z,23.45
2023-02-24T20:21:33.794Z,21.48
2023-02-24T20:24:02.275Z,22.65
2023-02-24T20:26:29.287Z,16.10
2023-02-24T20:28:59.111Z,19.55
2023-02-24T20:31:26.146Z,20.50
2023-02-24T20:33:52.964Z,18.65
2023-02-24T20:36:23.757Z,15.75
2023-02-24T20:38:51.215Z,21.70
2023-02-24T20:41:19.079Z,21.27
2023-02-24T20:43:45.717Z,15.13
2023-02-24T20:46:17.483Z,16.10
2023-02-24T20:48:44.509Z,22.85
2023-02-24T20:51:12.415Z,18.27
2023-02-24T20:53:55.629Z,21.92
2023-02-24T20:56:25.605Z,21.27
2023-02-24T20:59:00.002Z,21.05
2023-02-24T21:01:28.015Z,16.08
2023-02-24T21:03:54.551Z,20.38
2023-02-24T21:06:21.306Z,15.60
2023-02-24T21:08:48.035Z,24.00
2023-02-24T21:11:17.027Z,19.40
2023-02-24T21:13:46.018Z,19.10
2023-02-24T21:16:14.146Z,18.10
2023-02-24T21:18:42.456Z,17.00
2023-02-24T21:21:09.961Z,16.05
2023-02-24T21:23:38.082Z,19.17
2023-02-24T21:26:05.685Z,17.02
2023-02-24T21:28:32.587Z,24.80
2023-02-24T21:30:59.784Z,18.58
2023-02-24T21:33:26.407Z,23.67
2023-02-24T21:36:06.399Z,18.33
2023-02-24T21:38:36.330Z,21.05
2023-02-24T21:41:08.311Z,18.30
2023-02-24T21:43:35.242Z,17.35
2023-02-24T21:46:06.656Z,20.15
2023-02-24T21:48:33.550Z,18.23
2023-02-24T21:51:06.219Z,15.73
2023-02-24T21:53:35.392Z,16.15
2023-02-24T21:56:10.821Z,25.55
2023-02-24T21:58:39.153Z,14.55
2023-02-24T22:01:14.558Z,20.95
2023-02-24T22:03:41.388Z,22.40
2023-02-24T22:06:11.331Z,21.75
2023-02-24T22:08:43.063Z,17.50
2023-02-24T22:11:12.421Z,20.10
2023-02-24T22:16:08.801Z,25.02
2023-02-24T22:18:35.404Z,30.30
2023-02-24T22:21:07.439Z,25.65
2023-02-24T22:23:36.997Z,28.58
2023-02-24T22:26:08.869Z,27.52
2023-02-24T22:28:38.265Z,24.67
2023-02-24T22:33:33.813Z,22.80
2023-02-24T22:36:24.643Z,27.67
2023-02-24T22:38:51.543Z,31.65
2023-02-24T22:41:23.807Z,25.45
2023-02-24T22:43:50.883Z,25.30
2023-02-24T22:46:24.030Z,32.08
2023-02-24T22:48:50.777Z,26.80
2023-02-24T22:51:17.850Z,24.88
2023-02-24T22:53:46.652Z,25.52
2023-02-24T22:56:15.645Z,21.65
2023-02-24T22:58:43.284Z,24.13
2023-02-24T23:01:11.798Z,26.00
2023-02-24T23:03:40.025Z,22.73
2023-02-24T23:06:14.859Z,24.27
2023-02-24T23:08:43.125Z,28.77
2023-02-24T23:11:16.280Z,24.75
2023-02-24T23:13:44.645Z,23.33
2023-02-24T23:16:14.222Z,20.17
2023-02-24T23:18:41.021Z,36.90
2023-02-24T23:21:09.910Z,31.83
2023-02-24T23:23:37.294Z,28.70
2023-02-24T23:26:05.328Z,24.80
2023-02-24T23:28:31.901Z,25.98
2023-02-24T23:30:58.431Z,31.33
2023-02-24T23:33:24.968Z,33.03
2023-02-24T23:35:51.463Z,24.65
2023-02-24T23:38:18.204Z,31.13
2023-02-24T23:40:50.649Z,24.10
2023-02-24T23:43:17.746Z,25.08
2023-02-24T23:45:47.229Z,27.33
2023-02-24T23:48:14.280Z,28.38
2023-02-24T23:50:42.676Z,33.90
2023-02-24T23:53:09.995Z,25.10
2023-02-24T23:55:39.940Z,23.92
2023-02-24T23:58:06.625Z,29.58
